sensor_id;sensor_type;location;lat;lon;timestamp;P1;durP1;ratioP1;P2;durP2;ratioP2
61673;SDS011;47573;43.832;5.974;2022-11-20T00:00:23;498.55;;;346.92;;
61673;SDS011;47573;43.832;5.974;2022-11-20T00:05:25;486.50;;;337.88;;
61673;SDS011;47573;43.832;5.974;2022-11-20T00:10:25;478.13;;;331.70;;
61673;SDS011;47573;43.832;5.974;2022-11-20T00:15:26;474.83;;;329.77;;
61673;SDS011;47573;43.832;5.974;2022-11-20T00:20:28;472.02;;;325.70;;
61673;SDS011;47573;43.832;5.974;2022-11-20T00:25:28;485.85;;;341.45;;
61673;SDS011;47573;43.832;5.974;2022-11-20T00:30:29;502.17;;;354.33;;
61673;SDS011;47573;43.832;5.974;2022-11-20T00:35:30;499.85;;;356.65;;
61673;SDS011;47573;43.832;5.974;2022-11-20T00:40:31;514.63;;;370.02;;
61673;SDS011;47573;43.832;5.974;2022-11-20T00:45:31;519.95;;;376.58;;
61673;SDS011;47573;43.832;5.974;2022-11-20T00:50:33;521.25;;;378.40;;
61673;SDS011;47573;43.832;5.974;2022-11-20T00:55:34;516.80;;;368.05;;
61673;SDS011;47573;43.832;5.974;2022-11-20T01:00:34;503.25;;;359.15;;
61673;SDS011;47573;43.832;5.974;2022-11-20T01:05:36;497.02;;;351.60;;
61673;SDS011;47573;43.832;5.974;2022-11-20T01:10:36;488.92;;;347.77;;
61673;SDS011;47573;43.832;5.974;2022-11-20T01:15:37;478.73;;;339.67;;
61673;SDS011;47573;43.832;5.974;2022-11-20T01:20:39;443.85;;;310.08;;
61673;SDS011;47573;43.832;5.974;2022-11-20T01:25:39;424.38;;;296.15;;
61673;SDS011;47573;43.832;5.974;2022-11-20T01:30:40;393.80;;;273.08;;
61673;SDS011;47573;43.832;5.974;2022-11-20T01:35:41;408.38;;;283.88;;
61673;SDS011;47573;43.832;5.974;2022-11-20T01:40:42;401.80;;;277.65;;
61673;SDS011;47573;43.832;5.974;2022-11-20T01:51:04;373.67;;;262.20;;
61673;SDS011;47573;43.832;5.974;2022-11-20T01:56:11;365.48;;;250.80;;
61673;SDS011;47573;43.832;5.974;2022-11-20T02:01:13;353.67;;;243.90;;
61673;SDS011;47573;43.832;5.974;2022-11-20T02:06:16;319.10;;;218.52;;
61673;SDS011;47573;43.832;5.974;2022-11-20T02:11:22;313.33;;;212.63;;
61673;SDS011;47573;43.832;5.974;2022-11-20T02:16:23;318.20;;;214.85;;
61673;SDS011;47573;43.832;5.974;2022-11-20T02:21:32;308.17;;;208.35;;
61673;SDS011;47573;43.832;5.974;2022-11-20T02:26:46;306.63;;;206.93;;
61673;SDS011;47573;43.832;5.974;2022-11-20T02:31:50;294.05;;;199.68;;
61673;SDS011;47573;43.832;5.974;2022-11-20T02:36:52;285.63;;;190.65;;
61673;SDS011;47573;43.832;5.974;2022-11-20T02:41:54;285.73;;;187.82;;
61673;SDS011;47573;43.832;5.974;2022-11-20T02:46:56;276.02;;;181.35;;
61673;SDS011;47573;43.832;5.974;2022-11-20T02:51:57;280.42;;;185.27;;
61673;SDS011;47573;43.832;5.974;2022-11-20T02:56:59;278.75;;;182.45;;
61673;SDS011;47573;43.832;5.974;2022-11-20T03:01:59;273.80;;;179.73;;
61673;SDS011;47573;43.832;5.974;2022-11-20T03:07:00;275.20;;;179.27;;
61673;SDS011;47573;43.832;5.974;2022-11-20T03:12:02;270.13;;;176.65;;
61673;SDS011;47573;43.832;5.974;2022-11-20T03:17:03;269.73;;;174.52;;
61673;SDS011;47573;43.832;5.974;2022-11-20T03:22:04;264.50;;;167.85;;
61673;SDS011;47573;43.832;5.974;2022-11-20T03:27:06;251.45;;;161.75;;
61673;SDS011;47573;43.832;5.974;2022-11-20T03:32:07;254.95;;;162.15;;
61673;SDS011;47573;43.832;5.974;2022-11-20T03:37:07;254.32;;;159.40;;
61673;SDS011;47573;43.832;5.974;2022-11-20T03:42:09;236.63;;;151.95;;
61673;SDS011;47573;43.832;5.974;2022-11-20T03:47:11;228.27;;;147.68;;
61673;SDS011;47573;43.832;5.974;2022-11-20T03:52:12;221.55;;;143.70;;
61673;SDS011;47573;43.832;5.974;2022-11-20T03:57:14;225.32;;;140.65;;
61673;SDS011;47573;43.832;5.974;2022-11-20T04:02:14;210.40;;;135.82;;
61673;SDS011;47573;43.832;5.974;2022-11-20T04:07:15;206.90;;;131.65;;
61673;SDS011;47573;43.832;5.974;2022-11-20T04:12:17;198.52;;;124.32;;
61673;SDS011;47573;43.832;5.974;2022-11-20T04:17:17;197.60;;;125.50;;
61673;SDS011;47573;43.832;5.974;2022-11-20T04:22:17;191.85;;;122.75;;
61673;SDS011;47573;43.832;5.974;2022-11-20T04:27:19;188.23;;;117.82;;
61673;SDS011;47573;43.832;5.974;2022-11-20T04:32:20;181.18;;;114.15;;
61673;SDS011;47573;43.832;5.974;2022-11-20T04:37:20;167.85;;;109.13;;
61673;SDS011;47573;43.832;5.974;2022-11-20T04:42:22;170.35;;;106.95;;
61673;SDS011;47573;43.832;5.974;2022-11-20T04:47:23;168.82;;;105.85;;
61673;SDS011;47573;43.832;5.974;2022-11-20T04:52:23;162.90;;;104.13;;
61673;SDS011;47573;43.832;5.974;2022-11-20T04:57:25;167.18;;;104.63;;
61673;SDS011;47573;43.832;5.974;2022-11-20T05:02:26;164.60;;;103.75;;
61673;SDS011;47573;43.832;5.974;2022-11-20T05:07:26;158.85;;;101.22;;
61673;SDS011;47573;43.832;5.974;2022-11-20T05:12:28;160.93;;;101.03;;
61673;SDS011;47573;43.832;5.974;2022-11-20T05:17:28;155.57;;;97.13;;
61673;SDS011;47573;43.832;5.974;2022-11-20T05:22:29;151.38;;;95.65;;
61673;SDS011;47573;43.832;5.974;2022-11-20T05:27:31;210.15;;;113.03;;
61673;SDS011;47573;43.832;5.974;2022-11-20T05:32:31;253.02;;;127.80;;
61673;SDS011;47573;43.832;5.974;2022-11-20T05:37:32;873.25;;;421.20;;
61673;SDS011;47573;43.832;5.974;2022-11-20T05:42:34;266.42;;;130.93;;
61673;SDS011;47573;43.832;5.974;2022-11-20T05:47:34;167.93;;;99.75;;
61673;SDS011;47573;43.832;5.974;2022-11-20T05:52:35;152.38;;;94.15;;
61673;SDS011;47573;43.832;5.974;2022-11-20T05:57:36;147.00;;;90.90;;
61673;SDS011;47573;43.832;5.974;2022-11-20T06:02:37;141.68;;;88.10;;
61673;SDS011;47573;43.832;5.974;2022-11-20T06:07:37;137.50;;;87.07;;
61673;SDS011;47573;43.832;5.974;2022-11-20T06:12:39;133.23;;;84.18;;
61673;SDS011;47573;43.832;5.974;2022-11-20T06:17:40;132.00;;;81.30;;
61673;SDS011;47573;43.832;5.974;2022-11-20T06:22:40;129.05;;;82.10;;
61673;SDS011;47573;43.832;5.974;2022-11-20T06:27:42;126.70;;;78.13;;
61673;SDS011;47573;43.832;5.974;2022-11-20T06:32:43;125.38;;;76.95;;
61673;SDS011;47573;43.832;5.974;2022-11-20T06:37:43;120.10;;;74.15;;
61673;SDS011;47573;43.832;5.974;2022-11-20T06:42:45;118.60;;;73.30;;
61673;SDS011;47573;43.832;5.974;2022-11-20T06:47:45;116.63;;;70.68;;
61673;SDS011;47573;43.832;5.974;2022-11-20T06:52:46;109.18;;;69.40;;
61673;SDS011;47573;43.832;5.974;2022-11-20T06:57:48;105.78;;;65.00;;
61673;SDS011;47573;43.832;5.974;2022-11-20T07:02:48;105.82;;;64.05;;
61673;SDS011;47573;43.832;5.974;2022-11-20T07:07:49;101.18;;;64.22;;
61673;SDS011;47573;43.832;5.974;2022-11-20T07:12:51;97.75;;;60.90;;
61673;SDS011;47573;43.832;5.974;2022-11-20T07:17:52;100.85;;;61.20;;
61673;SDS011;47573;43.832;5.974;2022-11-20T07:22:53;90.60;;;57.15;;
61673;SDS011;47573;43.832;5.974;2022-11-20T07:27:57;94.18;;;56.35;;
61673;SDS011;47573;43.832;5.974;2022-11-20T07:32:58;89.60;;;55.30;;
61673;SDS011;47573;43.832;5.974;2022-11-20T07:37:59;88.70;;;54.22;;
61673;SDS011;47573;43.832;5.974;2022-11-20T07:43:01;85.05;;;52.70;;
61673;SDS011;47573;43.832;5.974;2022-11-20T07:48:01;81.15;;;51.50;;
61673;SDS011;47573;43.832;5.974;2022-11-20T07:53:02;79.80;;;50.22;;
61673;SDS011;47573;43.832;5.974;2022-11-20T07:58:05;80.72;;;49.83;;
61673;SDS011;47573;43.832;5.974;2022-11-20T08:03:06;75.40;;;46.67;;
61673;SDS011;47573;43.832;5.974;2022-11-20T08:08:07;69.63;;;45.22;;
61673;SDS011;47573;43.832;5.974;2022-11-20T08:13:09;72.97;;;45.55;;
61673;SDS011;47573;43.832;5.974;2022-11-20T08:18:10;72.13;;;44.92;;
61673;SDS011;47573;43.832;5.974;2022-11-20T08:23:11;66.93;;;43.75;;
61673;SDS011;47573;43.832;5.974;2022-11-20T08:28:13;70.32;;;43.97;;
61673;SDS011;47573;43.832;5.974;2022-11-20T08:33:14;70.78;;;43.97;;
61673;SDS011;47573;43.832;5.974;2022-11-20T08:38:14;65.00;;;42.60;;
61673;SDS011;47573;43.832;5.974;2022-11-20T08:43:16;64.00;;;41.65;;
61673;SDS011;47573;43.832;5.974;2022-11-20T08:48:16;59.65;;;38.50;;
61673;SDS011;47573;43.832;5.974;2022-11-20T08:53:17;59.13;;;38.58;;
61673;SDS011;47573;43.832;5.974;2022-11-20T08:58:19;61.08;;;39.17;;
61673;SDS011;47573;43.832;5.974;2022-11-20T09:03:19;55.83;;;35.95;;
61673;SDS011;47573;43.832;5.974;2022-11-20T09:08:20;57.17;;;37.35;;
61673;SDS011;47573;43.832;5.974;2022-11-20T09:13:22;57.20;;;37.28;;
61673;SDS011;47573;43.832;5.974;2022-11-20T09:18:23;55.90;;;37.22;;
61673;SDS011;47573;43.832;5.974;2022-11-20T09:23:24;54.38;;;35.65;;
61673;SDS011;47573;43.832;5.974;2022-11-20T09:28:26;24.67;;;15.95;;
61673;SDS011;47573;43.832;5.974;2022-11-20T09:33:27;7.60;;;4.70;;
61673;SDS011;47573;43.832;5.974;2022-11-20T09:38:27;272.90;;;70.35;;
61673;SDS011;47573;43.832;5.974;2022-11-20T09:43:33;95.72;;;25.25;;
61673;SDS011;47573;43.832;5.974;2022-11-20T09:48:48;31.60;;;9.65;;
61673;SDS011;47573;43.832;5.974;2022-11-20T09:54:06;31.95;;;9.90;;
61673;SDS011;47573;43.832;5.974;2022-11-20T10:04:38;10.23;;;6.43;;
61673;SDS011;47573;43.832;5.974;2022-11-20T10:09:48;10.98;;;7.82;;
61673;SDS011;47573;43.832;5.974;2022-11-20T10:14:56;11.57;;;8.15;;
61673;SDS011;47573;43.832;5.974;2022-11-20T10:20:11;12.70;;;8.32;;
61673;SDS011;47573;43.832;5.974;2022-11-20T10:25:17;12.48;;;8.55;;
61673;SDS011;47573;43.832;5.974;2022-11-20T10:30:21;10.73;;;7.07;;
61673;SDS011;47573;43.832;5.974;2022-11-20T10:35:23;6.57;;;4.78;;
61673;SDS011;47573;43.832;5.974;2022-11-20T10:40:30;12.68;;;5.35;;
61673;SDS011;47573;43.832;5.974;2022-11-20T10:45:43;94.65;;;29.58;;
61673;SDS011;47573;43.832;5.974;2022-11-20T10:50:54;32.72;;;10.25;;
61673;SDS011;47573;43.832;5.974;2022-11-20T10:56:07;5.38;;;3.90;;
61673;SDS011;47573;43.832;5.974;2022-11-20T11:01:18;6.70;;;4.60;;
61673;SDS011;47573;43.832;5.974;2022-11-20T11:06:21;5.50;;;3.97;;
61673;SDS011;47573;43.832;5.974;2022-11-20T11:11:28;5.78;;;3.50;;
61673;SDS011;47573;43.832;5.974;2022-11-20T11:16:32;5.57;;;3.80;;
61673;SDS011;47573;43.832;5.974;2022-11-20T11:21:32;3.60;;;3.10;;
61673;SDS011;47573;43.832;5.974;2022-11-20T11:26:33;27.38;;;14.77;;
61673;SDS011;47573;43.832;5.974;2022-11-20T11:31:35;84.35;;;37.47;;
61673;SDS011;47573;43.832;5.974;2022-11-20T11:36:35;59.15;;;26.25;;
61673;SDS011;47573;43.832;5.974;2022-11-20T11:41:36;52.03;;;22.35;;
61673;SDS011;47573;43.832;5.974;2022-11-20T11:46:38;47.38;;;21.05;;
61673;SDS011;47573;43.832;5.974;2022-11-20T11:51:56;30.92;;;14.90;;
61673;SDS011;47573;43.832;5.974;2022-11-20T11:57:01;24.17;;;12.63;;
61673;SDS011;47573;43.832;5.974;2022-11-20T12:02:12;26.60;;;10.85;;
61673;SDS011;47573;43.832;5.974;2022-11-20T12:07:22;15.75;;;8.80;;
61673;SDS011;47573;43.832;5.974;2022-11-20T12:12:34;23.75;;;12.00;;
61673;SDS011;47573;43.832;5.974;2022-11-20T12:17:41;31.92;;;15.23;;
61673;SDS011;47573;43.832;5.974;2022-11-20T12:22:44;32.90;;;17.35;;
61673;SDS011;47573;43.832;5.974;2022-11-20T12:33:35;32.13;;;16.15;;
61673;SDS011;47573;43.832;5.974;2022-11-20T12:38:53;32.70;;;16.10;;
61673;SDS011;47573;43.832;5.974;2022-11-20T12:44:10;31.95;;;15.35;;
61673;SDS011;47573;43.832;5.974;2022-11-20T12:49:26;35.10;;;16.77;;
61673;SDS011;47573;43.832;5.974;2022-11-20T12:54:38;33.40;;;16.20;;
61673;SDS011;47573;43.832;5.974;2022-11-20T12:59:57;29.75;;;15.60;;
61673;SDS011;47573;43.832;5.974;2022-11-20T13:10:36;30.95;;;15.93;;
61673;SDS011;47573;43.832;5.974;2022-11-20T13:15:45;29.40;;;14.95;;
61673;SDS011;47573;43.832;5.974;2022-11-20T13:20:52;30.23;;;15.40;;
61673;SDS011;47573;43.832;5.974;2022-11-20T13:26:02;27.55;;;14.98;;
61673;SDS011;47573;43.832;5.974;2022-11-20T13:31:04;26.52;;;14.40;;
61673;SDS011;47573;43.832;5.974;2022-11-20T13:36:07;26.20;;;13.90;;
61673;SDS011;47573;43.832;5.974;2022-11-20T13:41:25;26.25;;;13.90;;
61673;SDS011;47573;43.832;5.974;2022-11-20T13:46:35;23.75;;;13.15;;
61673;SDS011;47573;43.832;5.974;2022-11-20T13:51:40;25.15;;;12.90;;
61673;SDS011;47573;43.832;5.974;2022-11-20T13:56:47;26.13;;;13.30;;
61673;SDS011;47573;43.832;5.974;2022-11-20T14:01:55;24.27;;;13.07;;
61673;SDS011;47573;43.832;5.974;2022-11-20T14:06:57;26.73;;;14.15;;
61673;SDS011;47573;43.832;5.974;2022-11-20T14:11:58;24.95;;;13.05;;
61673;SDS011;47573;43.832;5.974;2022-11-20T14:17:04;22.33;;;12.40;;
61673;SDS011;47573;43.832;5.974;2022-11-20T14:22:09;24.38;;;12.60;;
61673;SDS011;47573;43.832;5.974;2022-11-20T14:27:16;20.67;;;11.68;;
61673;SDS011;47573;43.832;5.974;2022-11-20T14:32:19;24.02;;;12.20;;
61673;SDS011;47573;43.832;5.974;2022-11-20T14:37:24;22.98;;;11.85;;
61673;SDS011;47573;43.832;5.974;2022-11-20T14:42:28;25.20;;;12.45;;
61673;SDS011;47573;43.832;5.974;2022-11-20T14:47:29;20.33;;;11.45;;
61673;SDS011;47573;43.832;5.974;2022-11-20T14:52:32;19.65;;;11.13;;
61673;SDS011;47573;43.832;5.974;2022-11-20T14:57:33;22.63;;;12.05;;
61673;SDS011;47573;43.832;5.974;2022-11-20T15:02:38;19.08;;;11.00;;
61673;SDS011;47573;43.832;5.974;2022-11-20T15:07:41;19.33;;;10.65;;
61673;SDS011;47573;43.832;5.974;2022-11-20T15:12:45;20.98;;;10.98;;
61673;SDS011;47573;43.832;5.974;2022-11-20T15:17:48;19.05;;;10.70;;
61673;SDS011;47573;43.832;5.974;2022-11-20T15:22:50;19.85;;;10.05;;
61673;SDS011;47573;43.832;5.974;2022-11-20T15:27:51;21.42;;;11.27;;
61673;SDS011;47573;43.832;5.974;2022-11-20T15:32:55;20.02;;;10.55;;
61673;SDS011;47573;43.832;5.974;2022-11-20T15:37:57;18.73;;;10.02;;
61673;SDS011;47573;43.832;5.974;2022-11-20T15:42:57;17.65;;;9.75;;
61673;SDS011;47573;43.832;5.974;2022-11-20T15:47:58;37.00;;;16.30;;
61673;SDS011;47573;43.832;5.974;2022-11-20T15:53:00;19.48;;;10.52;;
61673;SDS011;47573;43.832;5.974;2022-11-20T15:58:01;21.98;;;11.43;;
61673;SDS011;47573;43.832;5.974;2022-11-20T16:03:01;18.50;;;10.45;;
61673;SDS011;47573;43.832;5.974;2022-11-20T16:08:03;18.02;;;10.13;;
61673;SDS011;47573;43.832;5.974;2022-11-20T16:13:04;20.15;;;11.40;;
61673;SDS011;47573;43.832;5.974;2022-11-20T16:18:11;19.23;;;11.48;;
61673;SDS011;47573;43.832;5.974;2022-11-20T16:23:15;19.35;;;11.00;;
61673;SDS011;47573;43.832;5.974;2022-11-20T16:28:15;18.65;;;11.45;;
61673;SDS011;47573;43.832;5.974;2022-11-20T16:33:17;17.60;;;11.30;;
61673;SDS011;47573;43.832;5.974;2022-11-20T16:38:18;17.88;;;11.35;;
61673;SDS011;47573;43.832;5.974;2022-11-20T16:43:19;19.95;;;12.02;;
61673;SDS011;47573;43.832;5.974;2022-11-20T16:48:19;20.55;;;13.38;;
61673;SDS011;47573;43.832;5.974;2022-11-20T16:53:21;43.45;;;25.83;;
61673;SDS011;47573;43.832;5.974;2022-11-20T16:58:22;45.35;;;27.98;;
61673;SDS011;47573;43.832;5.974;2022-11-20T17:03:22;45.28;;;27.58;;
61673;SDS011;47573;43.832;5.974;2022-11-20T17:08:25;45.15;;;27.92;;
61673;SDS011;47573;43.832;5.974;2022-11-20T17:13:27;47.37;;;29.37;;
61673;SDS011;47573;43.832;5.974;2022-11-20T17:18:29;49.70;;;29.83;;
61673;SDS011;47573;43.832;5.974;2022-11-20T17:23:31;61.60;;;37.92;;
61673;SDS011;47573;43.832;5.974;2022-11-20T17:28:32;70.63;;;43.08;;
61673;SDS011;47573;43.832;5.974;2022-11-20T17:33:34;72.90;;;43.58;;
61673;SDS011;47573;43.832;5.974;2022-11-20T17:38:37;70.38;;;42.55;;
61673;SDS011;47573;43.832;5.974;2022-11-20T17:43:37;76.28;;;44.00;;
61673;SDS011;47573;43.832;5.974;2022-11-20T17:48:38;76.15;;;45.40;;
61673;SDS011;47573;43.832;5.974;2022-11-20T17:53:42;75.03;;;44.60;;
61673;SDS011;47573;43.832;5.974;2022-11-20T17:58:44;80.95;;;46.53;;
61673;SDS011;47573;43.832;5.974;2022-11-20T18:03:44;81.10;;;46.28;;
61673;SDS011;47573;43.832;5.974;2022-11-20T18:08:46;87.45;;;48.63;;
61673;SDS011;47573;43.832;5.974;2022-11-20T18:13:48;85.88;;;48.85;;
61673;SDS011;47573;43.832;5.974;2022-11-20T18:18:52;117.63;;;64.15;;
61673;SDS011;47573;43.832;5.974;2022-11-20T18:23:55;125.65;;;68.00;;
61673;SDS011;47573;43.832;5.974;2022-11-20T18:28:56;146.13;;;83.53;;
61673;SDS011;47573;43.832;5.974;2022-11-20T18:33:56;190.40;;;108.55;;
61673;SDS011;47573;43.832;5.974;2022-11-20T18:38:58;200.98;;;117.47;;
61673;SDS011;47573;43.832;5.974;2022-11-20T18:44:00;223.32;;;130.63;;
61673;SDS011;47573;43.832;5.974;2022-11-20T18:49:01;227.50;;;134.90;;
61673;SDS011;47573;43.832;5.974;2022-11-20T18:54:03;251.55;;;145.68;;
61673;SDS011;47573;43.832;5.974;2022-11-20T18:59:05;262.25;;;154.40;;
61673;SDS011;47573;43.832;5.974;2022-11-20T19:04:07;270.45;;;156.40;;
61673;SDS011;47573;43.832;5.974;2022-11-20T19:09:10;271.25;;;165.07;;
61673;SDS011;47573;43.832;5.974;2022-11-20T19:14:11;276.75;;;166.98;;
61673;SDS011;47573;43.832;5.974;2022-11-20T19:19:12;285.15;;;176.25;;
61673;SDS011;47573;43.832;5.974;2022-11-20T19:24:15;302.20;;;188.57;;
61673;SDS011;47573;43.832;5.974;2022-11-20T19:29:15;318.90;;;200.63;;
61673;SDS011;47573;43.832;5.974;2022-11-20T19:34:16;327.75;;;211.93;;
61673;SDS011;47573;43.832;5.974;2022-11-20T19:39:18;349.63;;;226.50;;
61673;SDS011;47573;43.832;5.974;2022-11-20T19:44:19;356.02;;;238.65;;
61673;SDS011;47573;43.832;5.974;2022-11-20T19:49:19;385.30;;;255.88;;
61673;SDS011;47573;43.832;5.974;2022-11-20T19:54:21;390.13;;;257.80;;
61673;SDS011;47573;43.832;5.974;2022-11-20T19:59:21;383.50;;;256.98;;
61673;SDS011;47573;43.832;5.974;2022-11-20T20:04:22;414.92;;;274.52;;
61673;SDS011;47573;43.832;5.974;2022-11-20T20:09:24;447.17;;;301.13;;
61673;SDS011;47573;43.832;5.974;2022-11-20T20:14:24;465.65;;;308.08;;
61673;SDS011;47573;43.832;5.974;2022-11-20T20:19:25;471.65;;;319.70;;
61673;SDS011;47573;43.832;5.974;2022-11-20T20:24:27;482.75;;;325.20;;
61673;SDS011;47573;43.832;5.974;2022-11-20T20:29:27;477.58;;;322.15;;
61673;SDS011;47573;43.832;5.974;2022-11-20T20:34:28;474.52;;;320.58;;
61673;SDS011;47573;43.832;5.974;2022-11-20T20:39:30;487.63;;;333.73;;
61673;SDS011;47573;43.832;5.974;2022-11-20T20:44:31;498.10;;;343.73;;
61673;SDS011;47573;43.832;5.974;2022-11-20T20:49:31;500.15;;;344.27;;
61673;SDS011;47573;43.832;5.974;2022-11-20T20:54:34;489.23;;;339.23;;
61673;SDS011;47573;43.832;5.974;2022-11-20T20:59:34;498.10;;;340.60;;
61673;SDS011;47573;43.832;5.974;2022-11-20T21:04:35;516.38;;;355.90;;
61673;SDS011;47573;43.832;5.974;2022-11-20T21:09:37;519.70;;;360.63;;
61673;SDS011;47573;43.832;5.974;2022-11-20T21:14:37;515.63;;;359.00;;
61673;SDS011;47573;43.832;5.974;2022-11-20T21:19:38;503.10;;;354.63;;
61673;SDS011;47573;43.832;5.974;2022-11-20T21:24:39;509.30;;;352.73;;
61673;SDS011;47573;43.832;5.974;2022-11-20T21:29:40;517.03;;;353.13;;
61673;SDS011;47573;43.832;5.974;2022-11-20T21:34:40;503.65;;;352.58;;
61673;SDS011;47573;43.832;5.974;2022-11-20T21:39:42;491.48;;;344.25;;
61673;SDS011;47573;43.832;5.974;2022-11-20T21:44:44;492.70;;;342.25;;
61673;SDS011;47573;43.832;5.974;2022-11-20T21:49:45;512.20;;;353.02;;
61673;SDS011;47573;43.832;5.974;2022-11-20T21:54:46;511.83;;;356.05;;
61673;SDS011;47573;43.832;5.974;2022-11-20T21:59:47;523.75;;;373.88;;
61673;SDS011;47573;43.832;5.974;2022-11-20T22:04:47;519.63;;;368.02;;
61673;SDS011;47573;43.832;5.974;2022-11-20T22:09:49;522.10;;;367.05;;
61673;SDS011;47573;43.832;5.974;2022-11-20T22:14:50;512.50;;;360.83;;
61673;SDS011;47573;43.832;5.974;2022-11-20T22:19:50;517.83;;;359.98;;
61673;SDS011;47573;43.832;5.974;2022-11-20T22:24:52;505.90;;;351.35;;
61673;SDS011;47573;43.832;5.974;2022-11-20T22:29:53;499.38;;;345.65;;
61673;SDS011;47573;43.832;5.974;2022-11-20T22:34:53;495.83;;;341.73;;
61673;SDS011;47573;43.832;5.974;2022-11-20T22:39:55;484.35;;;333.02;;
61673;SDS011;47573;43.832;5.974;2022-11-20T22:44:56;479.45;;;326.30;;
61673;SDS011;47573;43.832;5.974;2022-11-20T22:49:57;470.38;;;321.08;;
61673;SDS011;47573;43.832;5.974;2022-11-20T22:54:58;485.20;;;329.08;;
61673;SDS011;47573;43.832;5.974;2022-11-20T22:59:59;496.00;;;339.25;;
61673;SDS011;47573;43.832;5.974;2022-11-20T23:04:59;502.73;;;350.73;;
61673;SDS011;47573;43.832;5.974;2022-11-20T23:10:01;502.10;;;347.60;;
61673;SDS011;47573;43.832;5.974;2022-11-20T23:15:02;500.05;;;345.65;;
61673;SDS011;47573;43.832;5.974;2022-11-20T23:20:04;485.75;;;335.63;;
61673;SDS011;47573;43.832;5.974;2022-11-20T23:25:07;487.60;;;333.23;;
61673;SDS011;47573;43.832;5.974;2022-11-20T23:30:09;478.77;;;329.38;;
61673;SDS011;47573;43.832;5.974;2022-11-20T23:35:10;475.30;;;326.48;;
61673;SDS011;47573;43.832;5.974;2022-11-20T23:40:12;492.13;;;337.15;;
61673;SDS011;47573;43.832;5.974;2022-11-20T23:45:13;511.80;;;353.25;;
61673;SDS011;47573;43.832;5.974;2022-11-20T23:50:14;503.77;;;347.65;;
61673;SDS011;47573;43.832;5.974;2022-11-20T23:55:16;497.77;;;347.20;;
